createdAt,value
2022-09-26T00:00:35.988Z,5.20
2022-09-26T00:05:39.012Z,5.10
2022-09-26T00:10:40.813Z,6.57
2022-09-26T00:15:42.581Z,5.53
2022-09-26T00:20:44.384Z,6.97
2022-09-26T00:25:47.745Z,5.43
2022-09-26T00:30:49.936Z,5.13
2022-09-26T00:35:53.356Z,6.00
2022-09-26T00:40:55.591Z,6.07
2022-09-26T00:46:06.447Z,6.20
2022-09-26T00:51:10.000Z,6.03
2022-09-26T00:56:18.975Z,6.13
2022-09-26T01:01:22.618Z,7.20
2022-09-26T01:06:24.379Z,6.50
2022-09-26T01:11:28.253Z,6.97
2022-09-26T01:16:31.900Z,6.63
2022-09-26T01:21:52.206Z,7.25
2022-09-26T01:27:07.841Z,7.80
2022-09-26T01:32:49.567Z,7.50
2022-09-26T01:38:24.718Z,8.73
2022-09-26T01:43:45.757Z,8.77
2022-09-26T01:48:56.155Z,8.95
2022-09-26T01:54:21.804Z,13.02
2022-09-26T01:59:34.434Z,13.80
2022-09-26T02:04:42.854Z,18.65
2022-09-26T02:09:50.955Z,17.73
2022-09-26T02:14:56.733Z,17.65
2022-09-26T02:20:01.497Z,17.98
2022-09-26T02:25:04.960Z,20.17
2022-09-26T02:30:07.983Z,22.38
2022-09-26T02:35:30.010Z,22.75
2022-09-26T02:40:42.307Z,25.30
2022-09-26T02:45:52.274Z,31.17
2022-09-26T02:51:26.834Z,26.15
2022-09-26T02:56:34.818Z,21.90
2022-09-26T03:01:54.242Z,26.55
2022-09-26T03:07:04.370Z,24.42
2022-09-26T03:12:07.862Z,20.55
2022-09-26T03:17:10.205Z,24.13
2022-09-26T03:22:14.382Z,21.23
2022-09-26T03:27:16.954Z,25.40
2022-09-26T03:32:20.304Z,22.00
2022-09-26T03:37:23.334Z,20.77
2022-09-26T03:42:25.661Z,20.83
2022-09-26T03:47:29.475Z,24.20
2022-09-26T03:52:31.694Z,24.63
2022-09-26T03:57:33.384Z,23.45
2022-09-26T04:02:49.302Z,22.92
2022-09-26T04:08:06.783Z,22.33
2022-09-26T04:13:10.553Z,22.30
2022-09-26T04:18:12.160Z,21.80
2022-09-26T04:23:14.312Z,21.23
2022-09-26T04:28:16.265Z,22.05
2022-09-26T04:33:17.834Z,19.65
2022-09-26T04:38:25.127Z,21.42
2022-09-26T04:43:26.731Z,21.42
2022-09-26T04:48:28.635Z,16.92
2022-09-26T04:53:35.962Z,18.75
2022-09-26T04:58:46.820Z,16.48
2022-09-26T05:03:49.537Z,16.98
2022-09-26T05:08:52.186Z,17.35
2022-09-26T05:14:02.722Z,14.87
2022-09-26T05:19:05.188Z,15.68
2022-09-26T05:24:29.196Z,16.55
2022-09-26T05:29:31.006Z,17.17
2022-09-26T05:34:37.238Z,17.52
2022-09-26T05:39:58.948Z,14.63
2022-09-26T05:45:03.394Z,14.60
2022-09-26T05:50:09.970Z,13.02
2022-09-26T05:55:14.012Z,14.65
2022-09-26T06:00:35.618Z,14.65
2022-09-26T06:05:38.080Z,15.70
2022-09-26T06:10:47.085Z,16.58
2022-09-26T06:15:49.588Z,14.88
2022-09-26T06:20:51.329Z,13.48
2022-09-26T06:25:53.175Z,14.15
2022-09-26T06:30:55.521Z,14.25
2022-09-26T06:36:17.084Z,12.93
2022-09-26T06:41:19.781Z,11.68
2022-09-26T06:46:21.753Z,12.77
2022-09-26T06:51:31.899Z,10.60
2022-09-26T06:56:33.558Z,9.10
2022-09-26T07:01:35.334Z,10.75
2022-09-26T07:06:58.370Z,12.20
2022-09-26T07:12:17.174Z,11.35
2022-09-26T07:17:19.118Z,17.05
2022-09-26T07:22:44.766Z,18.52
2022-09-26T07:27:51.975Z,15.10
2022-09-26T07:33:03.165Z,14.23
2022-09-26T07:38:18.847Z,18.80
2022-09-26T07:43:30.783Z,15.52
2022-09-26T07:49:02.518Z,15.88
2022-09-26T07:54:35.207Z,15.03
2022-09-26T07:59:55.339Z,15.43
2022-09-26T08:05:26.323Z,14.07
2022-09-26T08:10:28.121Z,13.48
2022-09-26T08:15:47.978Z,13.63
2022-09-26T08:20:57.792Z,16.00
2022-09-26T08:26:05.089Z,11.23
2022-09-26T08:31:18.163Z,12.20
2022-09-26T08:36:21.538Z,13.23
2022-09-26T08:41:54.700Z,12.02
2022-09-26T08:47:43.870Z,9.77
2022-09-26T08:53:04.233Z,9.30
2022-09-26T08:58:29.052Z,9.35
2022-09-26T09:03:58.223Z,9.23
2022-09-26T09:09:00.024Z,8.95
2022-09-26T09:14:40.642Z,7.22
2022-09-26T09:20:26.271Z,7.00
2022-09-26T09:25:50.665Z,7.22
2022-09-26T09:31:01.131Z,6.65
2022-09-26T09:36:08.470Z,6.65
2022-09-26T09:41:17.352Z,5.82
2022-09-26T09:46:34.742Z,6.25
2022-09-26T09:52:00.961Z,6.82
2022-09-26T09:57:37.584Z,5.75
2022-09-26T10:03:03.607Z,8.20
2022-09-26T10:08:18.394Z,14.77
2022-09-26T10:13:49.656Z,7.68
2022-09-26T10:19:04.187Z,5.50
2022-09-26T10:24:38.745Z,6.78
2022-09-26T10:29:45.338Z,5.50
2022-09-26T10:35:21.257Z,6.30
2022-09-26T10:40:55.343Z,4.80
2022-09-26T10:46:16.536Z,3.38
2022-09-26T10:51:45.475Z,3.58
2022-09-26T10:56:54.272Z,3.33
2022-09-26T11:01:58.961Z,3.45
2022-09-26T11:07:02.107Z,3.17
2022-09-26T11:12:25.430Z,2.27
2022-09-26T11:17:50.525Z,2.63
2022-09-26T11:23:16.246Z,2.50
2022-09-26T11:28:26.874Z,2.30
2022-09-26T11:33:49.616Z,1.50
2022-09-26T11:39:18.532Z,3.05
2022-09-26T11:44:32.150Z,2.88
2022-09-26T11:50:52.333Z,1.35
2022-09-26T11:56:23.129Z,1.40
2022-09-26T12:02:01.960Z,2.05
2022-09-26T12:07:16.344Z,1.63
2022-09-26T12:12:47.248Z,2.08
2022-09-26T12:17:54.007Z,2.00
2022-09-26T12:23:21.330Z,3.65
2022-09-26T12:28:50.552Z,1.38
2022-09-26T12:33:58.259Z,1.53
2022-09-26T12:39:36.429Z,2.45
2022-09-26T12:45:13.542Z,2.95
2022-09-26T12:50:29.626Z,1.98
2022-09-26T12:55:34.156Z,2.92
2022-09-26T13:00:45.709Z,1.85
2022-09-26T13:06:25.582Z,3.38
2022-09-26T13:16:57.547Z,2.72
2022-09-26T13:22:37.782Z,1.27
2022-09-26T13:27:44.151Z,1.50
2022-09-26T13:32:47.557Z,1.88
2022-09-26T13:38:00.666Z,1.75
2022-09-26T13:43:25.972Z,1.55
2022-09-26T13:48:40.045Z,1.80
2022-09-26T13:54:16.692Z,1.63
2022-09-26T13:59:18.180Z,3.35
2022-09-26T14:04:33.405Z,2.60
2022-09-26T14:09:42.154Z,1.40
2022-09-26T14:14:47.373Z,3.50
2022-09-26T14:19:57.181Z,1.40
2022-09-26T14:24:59.841Z,1.13
2022-09-26T14:30:22.610Z,1.90
2022-09-26T14:35:31.549Z,3.08
2022-09-26T14:40:51.916Z,1.75
2022-09-26T14:46:03.062Z,1.60
2022-09-26T14:51:11.212Z,1.60
2022-09-26T14:56:25.584Z,1.75
2022-09-26T15:01:36.470Z,2.88
2022-09-26T15:07:02.468Z,1.77
2022-09-26T15:12:13.062Z,2.20
2022-09-26T15:17:25.712Z,1.00
2022-09-26T15:22:30.890Z,1.13
2022-09-26T15:27:33.281Z,1.08
2022-09-26T15:32:35.005Z,1.05
2022-09-26T15:37:36.938Z,1.95
2022-09-26T15:42:57.549Z,1.60
2022-09-26T15:48:05.296Z,2.55
2022-09-26T15:53:17.605Z,1.23
2022-09-26T15:58:27.449Z,1.33
2022-09-26T16:03:40.087Z,3.38
2022-09-26T16:08:42.483Z,1.27
2022-09-26T16:13:49.560Z,3.00
2022-09-26T16:19:00.990Z,5.68
2022-09-26T16:24:34.257Z,6.22
2022-09-26T16:29:36.344Z,5.25
2022-09-26T16:34:38.071Z,6.72
2022-09-26T16:39:39.795Z,1.73
2022-09-26T16:44:51.603Z,4.18
2022-09-26T16:49:53.312Z,4.75
2022-09-26T16:54:59.718Z,2.63
2022-09-26T17:00:24.273Z,2.33
2022-09-26T17:05:26.251Z,2.33
2022-09-26T17:10:27.972Z,6.10
2022-09-26T17:15:30.891Z,7.20
2022-09-26T17:20:32.604Z,2.92
2022-09-26T17:25:35.096Z,3.38
2022-09-26T17:30:37.183Z,3.55
2022-09-26T17:35:40.923Z,2.75
2022-09-26T17:40:45.623Z,2.47
2022-09-26T17:45:50.805Z,2.55
2022-09-26T17:50:56.537Z,3.13
2022-09-26T17:55:58.544Z,1.58
2022-09-26T18:01:03.581Z,1.70
2022-09-26T18:06:05.941Z,2.25
2022-09-26T18:11:15.214Z,1.48
2022-09-26T18:16:17.278Z,2.53
2022-09-26T18:21:19.548Z,3.83
2022-09-26T18:26:27.893Z,3.78
2022-09-26T18:31:31.621Z,2.23
2022-09-26T18:36:33.704Z,2.92
2022-09-26T18:41:35.499Z,1.98
2022-09-26T18:46:37.934Z,2.40
2022-09-26T18:51:39.814Z,2.67
2022-09-26T18:57:00.557Z,3.00
2022-09-26T19:02:04.221Z,2.00
2022-09-26T19:07:06.914Z,4.45
2022-09-26T19:12:14.349Z,1.92
2022-09-26T19:17:16.008Z,2.20
2022-09-26T19:22:17.785Z,2.05
2022-09-26T19:27:23.581Z,2.38
2022-09-26T19:32:38.641Z,2.60
2022-09-26T19:37:40.584Z,3.25
2022-09-26T19:42:42.505Z,3.50
2022-09-26T19:47:53.063Z,2.17
2022-09-26T19:52:57.491Z,8.10
2022-09-26T19:58:11.832Z,4.70
2022-09-26T20:03:18.910Z,5.53
2022-09-26T20:08:26.431Z,3.85
2022-09-26T20:13:48.356Z,4.70
2022-09-26T20:18:51.615Z,3.08
2022-09-26T20:23:54.309Z,5.93
2022-09-26T20:28:56.801Z,6.50
2022-09-26T20:34:00.129Z,4.78
2022-09-26T20:39:06.489Z,4.03
2022-09-26T20:44:17.892Z,4.03
2022-09-26T20:49:23.609Z,5.07
2022-09-26T20:54:31.844Z,7.10
2022-09-26T20:59:36.009Z,10.87
2022-09-26T21:04:37.794Z,10.38
2022-09-26T21:09:39.770Z,8.57
2022-09-26T21:14:41.473Z,15.70
2022-09-26T21:19:43.473Z,3.92
2022-09-26T21:25:05.585Z,3.72
2022-09-26T21:30:12.902Z,4.05
2022-09-26T21:35:17.626Z,3.53
2022-09-26T21:40:26.332Z,3.25
2022-09-26T21:45:28.222Z,2.65
2022-09-26T21:50:31.135Z,14.75
2022-09-26T21:55:38.757Z,7.18
2022-09-26T22:00:40.924Z,4.22
2022-09-26T22:05:42.905Z,4.03
2022-09-26T22:10:44.599Z,2.45
2022-09-26T22:15:46.260Z,3.13
2022-09-26T22:20:55.088Z,3.80
2022-09-26T22:25:56.912Z,6.95
2022-09-26T22:31:03.076Z,6.65
2022-09-26T22:36:05.252Z,4.32
2022-09-26T22:41:07.826Z,4.22
2022-09-26T22:46:12.429Z,10.10
2022-09-26T22:51:15.692Z,21.63
2022-09-26T22:56:18.078Z,10.77
2022-09-26T23:01:23.658Z,15.23
2022-09-26T23:06:25.943Z,5.00
2022-09-26T23:11:28.072Z,4.43
2022-09-26T23:16:30.492Z,3.17
2022-09-26T23:21:32.169Z,5.68
2022-09-26T23:26:33.858Z,3.33
2022-09-26T23:31:35.720Z,3.05
2022-09-26T23:36:37.674Z,3.22
2022-09-26T23:41:39.463Z,6.93
2022-09-26T23:46:41.271Z,4.22
2022-09-26T23:51:43.357Z,5.05
2022-09-26T23:56:45.543Z,5.00
